createdAt,value
2018-12-29T00:00:17.604Z,1029.43
2018-12-29T00:00:43.204Z,1029.44
2018-12-29T00:01:08.806Z,1029.45
2018-12-29T00:01:34.407Z,1029.46
2018-12-29T00:02:00.041Z,1029.39
2018-12-29T00:02:25.559Z,1029.41
2018-12-29T00:02:51.158Z,1029.49
2018-12-29T00:03:16.749Z,1029.42
2018-12-29T00:03:42.319Z,1029.38
2018-12-29T00:04:07.889Z,1029.39
2018-12-29T00:04:33.460Z,1029.38
2018-12-29T00:04:59.038Z,1029.43
2018-12-29T00:05:24.630Z,1029.42
2018-12-29T00:05:50.212Z,1029.44
2018-12-29T00:06:15.781Z,1029.38
2018-12-29T00:06:41.360Z,1029.44
2018-12-29T00:07:06.928Z,1029.45
2018-12-29T00:07:32.509Z,1029.42
2018-12-29T00:07:58.068Z,1029.47
2018-12-29T00:08:23.653Z,1029.44
2018-12-29T00:08:49.243Z,1029.49
2018-12-29T00:09:14.824Z,1029.5
2018-12-29T00:09:40.426Z,1029.51
2018-12-29T00:10:06.037Z,1029.5
2018-12-29T00:10:31.621Z,1029.54
2018-12-29T00:10:57.199Z,1029.53
2018-12-29T00:11:22.768Z,1029.53
2018-12-29T00:11:48.347Z,1029.47
2018-12-29T00:12:13.933Z,1029.5
2018-12-29T00:12:39.518Z,1029.53
2018-12-29T00:13:05.095Z,1029.46
2018-12-29T00:13:30.681Z,1029.53
2018-12-29T00:13:56.265Z,1029.52
2018-12-29T00:14:21.845Z,1029.51
2018-12-29T00:14:47.407Z,1029.52
2018-12-29T00:15:12.968Z,1029.54
2018-12-29T00:15:38.542Z,1029.54
2018-12-29T00:16:04.131Z,1029.54
2018-12-29T00:16:29.719Z,1029.49
2018-12-29T00:16:55.304Z,1029.51
2018-12-29T00:17:20.871Z,1029.48
2018-12-29T00:17:47.950Z,1029.48
2018-12-29T00:18:12.038Z,1029.48
2018-12-29T00:18:37.618Z,1029.5
2018-12-29T00:19:03.200Z,1029.49
2018-12-29T00:19:28.788Z,1029.5
2018-12-29T00:19:54.388Z,1029.51
2018-12-29T00:20:19.966Z,1029.5
2018-12-29T00:20:45.538Z,1029.51
2018-12-29T00:21:11.115Z,1029.52
2018-12-29T00:21:36.713Z,1029.5
2018-12-29T00:22:02.301Z,1029.5
2018-12-29T00:22:27.875Z,1029.5
2018-12-29T00:22:53.465Z,1029.5
2018-12-29T00:23:19.020Z,1029.52
2018-12-29T00:23:44.611Z,1029.48
2018-12-29T00:24:10.189Z,1029.46
2018-12-29T00:24:35.782Z,1029.52
2018-12-29T00:25:01.387Z,1029.51
2018-12-29T00:25:26.985Z,1029.54
2018-12-29T00:25:52.561Z,1029.48
2018-12-29T00:26:18.132Z,1029.54
2018-12-29T00:26:43.722Z,1029.55
2018-12-29T00:27:09.277Z,1029.57
2018-12-29T00:27:34.871Z,1029.56
2018-12-29T00:28:00.474Z,1029.5
2018-12-29T00:28:26.057Z,1029.54
2018-12-29T00:28:51.628Z,1029.52
2018-12-29T00:29:17.217Z,1029.54
2018-12-29T00:29:42.790Z,1029.56
2018-12-29T00:30:08.361Z,1029.52
2018-12-29T00:30:33.915Z,1029.57
2018-12-29T00:30:59.492Z,1029.54
2018-12-29T00:31:25.060Z,1029.57
2018-12-29T00:31:50.631Z,1029.58
2018-12-29T00:32:16.210Z,1029.59
2018-12-29T00:32:41.798Z,1029.59
2018-12-29T00:33:07.365Z,1029.6
2018-12-29T00:33:32.949Z,1029.59
2018-12-29T00:33:58.507Z,1029.62
2018-12-29T00:34:24.090Z,1029.61
2018-12-29T00:34:49.641Z,1029.61
2018-12-29T00:35:15.216Z,1029.57
2018-12-29T00:35:40.797Z,1029.61
2018-12-29T00:36:07.274Z,1029.64
2018-12-29T00:36:31.948Z,1029.63
2018-12-29T00:36:57.541Z,1029.63
2018-12-29T00:37:23.119Z,1029.62
2018-12-29T00:37:48.676Z,1029.62
2018-12-29T00:38:14.243Z,1029.59
2018-12-29T00:38:39.802Z,1029.63
2018-12-29T00:39:05.382Z,1029.62
2018-12-29T00:39:30.955Z,1029.64
2018-12-29T00:39:56.527Z,1029.63
2018-12-29T00:40:22.090Z,1029.63
2018-12-29T00:40:47.677Z,1029.62
2018-12-29T00:41:13.251Z,1029.59
2018-12-29T00:41:38.815Z,1029.6
2018-12-29T00:42:04.386Z,1029.64
2018-12-29T00:42:29.994Z,1029.59
2018-12-29T00:42:55.569Z,1029.6
2018-12-29T00:43:21.155Z,1029.56
2018-12-29T00:43:46.736Z,1029.58
2018-12-29T00:44:12.316Z,1029.56
2018-12-29T00:44:37.888Z,1029.56
2018-12-29T00:45:03.475Z,1029.58
2018-12-29T00:45:29.060Z,1029.59
2018-12-29T00:45:54.634Z,1029.58
2018-12-29T00:46:20.204Z,1029.57
2018-12-29T00:46:45.785Z,1029.57
2018-12-29T00:47:11.370Z,1029.59
2018-12-29T00:47:36.939Z,1029.59
2018-12-29T00:48:02.504Z,1029.56
2018-12-29T00:48:28.072Z,1029.57
2018-12-29T00:48:53.688Z,1029.59
2018-12-29T00:49:19.273Z,1029.56
2018-12-29T00:49:44.830Z,1029.61
2018-12-29T00:50:10.416Z,1029.56
2018-12-29T00:50:35.993Z,1029.53
2018-12-29T00:51:01.590Z,1029.55
2018-12-29T00:51:27.169Z,1029.52
2018-12-29T00:51:52.741Z,1029.56
2018-12-29T00:52:18.325Z,1029.5
2018-12-29T00:52:43.921Z,1029.53
2018-12-29T00:53:09.497Z,1029.51
2018-12-29T00:53:35.079Z,1029.45
2018-12-29T00:54:00.658Z,1029.45
2018-12-29T00:54:26.506Z,1029.45
2018-12-29T00:54:51.798Z,1029.47
2018-12-29T00:55:17.372Z,1029.46
2018-12-29T00:55:42.958Z,1029.46
2018-12-29T00:56:08.515Z,1029.4
2018-12-29T00:56:34.108Z,1029.4
2018-12-29T00:56:59.687Z,1029.36
2018-12-29T00:57:25.261Z,1029.42
2018-12-29T00:57:50.845Z,1029.38
2018-12-29T00:58:16.412Z,1029.36
2018-12-29T00:58:42.011Z,1029.33
2018-12-29T00:59:07.575Z,1029.36
2018-12-29T00:59:33.163Z,1029.34
2018-12-29T00:59:58.764Z,1029.36
2018-12-29T01:00:24.327Z,1029.34
2018-12-29T01:00:49.905Z,1029.33
2018-12-29T01:01:15.487Z,1029.41
2018-12-29T01:01:41.071Z,1029.39
2018-12-29T01:02:06.664Z,1029.37
2018-12-29T01:02:32.252Z,1029.4
2018-12-29T01:02:57.813Z,1029.41
2018-12-29T01:03:23.409Z,1029.4
2018-12-29T01:03:48.986Z,1029.44
2018-12-29T01:04:14.575Z,1029.47
2018-12-29T01:04:40.164Z,1029.46
2018-12-29T01:05:05.752Z,1029.46
2018-12-29T01:05:31.303Z,1029.5
2018-12-29T01:05:56.892Z,1029.51
2018-12-29T01:06:22.473Z,1029.55
2018-12-29T01:06:48.061Z,1029.53
2018-12-29T01:07:13.627Z,1029.54
2018-12-29T01:07:39.204Z,1029.57
2018-12-29T01:08:04.783Z,1029.58
2018-12-29T01:08:30.357Z,1029.6
2018-12-29T01:08:55.953Z,1029.53
2018-12-29T01:09:21.521Z,1029.54
2018-12-29T01:09:47.099Z,1029.48
2018-12-29T01:10:12.689Z,1029.51
2018-12-29T01:10:38.264Z,1029.49
2018-12-29T01:11:03.839Z,1029.49
2018-12-29T01:11:29.403Z,1029.53
2018-12-29T01:11:54.971Z,1029.53
2018-12-29T01:12:20.567Z,1029.53
2018-12-29T01:12:46.127Z,1029.55
2018-12-29T01:13:11.704Z,1029.56
2018-12-29T01:13:37.281Z,1029.56
2018-12-29T01:14:02.855Z,1029.62
2018-12-29T01:14:28.421Z,1029.61
2018-12-29T01:14:53.997Z,1029.62
2018-12-29T01:15:19.573Z,1029.67
2018-12-29T01:15:45.153Z,1029.74
2018-12-29T01:16:10.741Z,1029.72
2018-12-29T01:16:36.313Z,1029.75
2018-12-29T01:17:01.890Z,1029.8
2018-12-29T01:17:27.461Z,1029.75
2018-12-29T01:17:53.043Z,1029.73
2018-12-29T01:18:18.621Z,1029.75
2018-12-29T01:18:44.201Z,1029.7
2018-12-29T01:19:09.761Z,1029.71
2018-12-29T01:19:35.344Z,1029.71
2018-12-29T01:20:00.926Z,1029.82
2018-12-29T01:20:26.509Z,1029.79
2018-12-29T01:20:52.108Z,1029.8
2018-12-29T01:21:17.703Z,1029.84
2018-12-29T01:21:43.292Z,1029.81
2018-12-29T01:22:08.857Z,1029.81
2018-12-29T01:22:34.450Z,1029.83
2018-12-29T01:23:00.022Z,1029.86
2018-12-29T01:23:25.615Z,1029.84
2018-12-29T01:23:51.193Z,1029.81
2018-12-29T01:24:16.781Z,1029.84
2018-12-29T01:24:42.358Z,1029.83
2018-12-29T01:25:07.926Z,1029.8
2018-12-29T01:25:33.508Z,1029.79
2018-12-29T01:25:59.077Z,1029.75
2018-12-29T01:26:24.658Z,1029.77
2018-12-29T01:26:50.244Z,1029.77
2018-12-29T01:27:15.805Z,1029.77
2018-12-29T01:27:41.389Z,1029.81
2018-12-29T01:28:06.974Z,1029.8
2018-12-29T01:28:32.550Z,1029.85
2018-12-29T01:28:58.130Z,1029.85
2018-12-29T01:29:23.711Z,1029.83
2018-12-29T01:29:49.289Z,1029.8
2018-12-29T01:30:14.867Z,1029.8
2018-12-29T01:30:40.444Z,1029.81
2018-12-29T01:31:06.013Z,1029.8
2018-12-29T01:31:31.600Z,1029.81
2018-12-29T01:31:57.193Z,1029.81
2018-12-29T01:32:22.775Z,1029.79
2018-12-29T01:32:48.349Z,1029.8
2018-12-29T01:33:13.935Z,1029.77
2018-12-29T01:33:39.508Z,1029.8
2018-12-29T01:34:05.093Z,1029.79
2018-12-29T01:34:30.677Z,1029.82
2018-12-29T01:34:56.247Z,1029.82
2018-12-29T01:35:21.831Z,1029.81
2018-12-29T01:35:47.409Z,1029.79
2018-12-29T01:36:12.971Z,1029.81
2018-12-29T01:36:38.568Z,1029.82
2018-12-29T01:37:04.133Z,1029.82
2018-12-29T01:37:29.715Z,1029.87
2018-12-29T01:37:55.307Z,1029.85
2018-12-29T01:38:20.878Z,1029.89
2018-12-29T01:38:46.470Z,1029.91
2018-12-29T01:39:12.044Z,1029.89
2018-12-29T01:39:37.615Z,1029.86
2018-12-29T01:40:03.189Z,1029.86
2018-12-29T01:40:28.789Z,1029.87
2018-12-29T01:40:54.359Z,1029.9
2018-12-29T01:41:19.943Z,1029.89
2018-12-29T01:41:45.529Z,1029.89
2018-12-29T01:42:11.147Z,1029.9
2018-12-29T01:42:36.727Z,1029.91
2018-12-29T01:43:02.329Z,1029.94
2018-12-29T01:43:27.913Z,1029.93
2018-12-29T01:43:53.473Z,1029.9
2018-12-29T01:44:19.051Z,1029.9
2018-12-29T01:44:44.642Z,1029.9
2018-12-29T01:45:17.092Z,1029.92
2018-12-29T01:45:35.793Z,1029.9
2018-12-29T01:46:01.384Z,1029.9
2018-12-29T01:46:26.957Z,1029.94
2018-12-29T01:46:52.537Z,1029.88
2018-12-29T01:47:18.114Z,1029.93
2018-12-29T01:47:43.698Z,1029.89
2018-12-29T01:48:09.271Z,1029.91
2018-12-29T01:48:34.839Z,1029.92
2018-12-29T01:49:00.418Z,1029.91
2018-12-29T01:49:26.008Z,1029.92
2018-12-29T01:49:51.584Z,1029.94
2018-12-29T01:50:17.168Z,1029.93
2018-12-29T01:50:42.730Z,1029.91
2018-12-29T01:51:08.310Z,1029.94
2018-12-29T01:51:33.889Z,1029.9
2018-12-29T01:51:59.461Z,1029.94
2018-12-29T01:52:25.064Z,1029.91
2018-12-29T01:52:50.625Z,1029.92
2018-12-29T01:53:16.206Z,1029.91
2018-12-29T01:53:41.761Z,1029.92
2018-12-29T01:54:07.335Z,1029.92
2018-12-29T01:54:32.912Z,1029.92
2018-12-29T01:54:58.489Z,1029.89
2018-12-29T01:55:24.061Z,1029.92
2018-12-29T01:55:49.639Z,1029.9
2018-12-29T01:56:15.222Z,1029.92
2018-12-29T01:56:40.791Z,1029.88
2018-12-29T01:57:06.372Z,1029.91
2018-12-29T01:57:31.941Z,1029.92
2018-12-29T01:57:57.533Z,1029.89
2018-12-29T01:58:23.101Z,1029.95
2018-12-29T01:58:48.659Z,1029.92
2018-12-29T01:59:14.232Z,1029.89
2018-12-29T01:59:39.809Z,1029.92
2018-12-29T02:00:05.397Z,1029.87
2018-12-29T02:00:30.975Z,1029.96
2018-12-29T02:00:56.560Z,1029.87
2018-12-29T02:01:22.149Z,1029.92
2018-12-29T02:01:47.723Z,1029.91
2018-12-29T02:02:13.297Z,1029.91
2018-12-29T02:02:38.871Z,1029.92
2018-12-29T02:03:04.466Z,1029.91
2018-12-29T02:03:30.009Z,1029.86
2018-12-29T02:03:55.595Z,1029.89
2018-12-29T02:04:21.169Z,1029.93
2018-12-29T02:04:46.756Z,1029.89
2018-12-29T02:05:12.347Z,1029.87
2018-12-29T02:05:37.915Z,1029.87
2018-12-29T02:06:03.473Z,1029.89
2018-12-29T02:06:29.040Z,1029.84
2018-12-29T02:06:54.614Z,1029.85
2018-12-29T02:07:20.177Z,1029.85
2018-12-29T02:07:45.778Z,1029.89
2018-12-29T02:08:11.359Z,1029.86
2018-12-29T02:08:36.934Z,1029.85
2018-12-29T02:09:02.506Z,1029.86
2018-12-29T02:09:28.086Z,1029.84
2018-12-29T02:09:53.662Z,1029.88
2018-12-29T02:10:19.249Z,1029.81
2018-12-29T02:10:44.818Z,1029.85
2018-12-29T02:11:10.395Z,1029.81
2018-12-29T02:11:35.979Z,1029.84
2018-12-29T02:12:01.559Z,1029.85
2018-12-29T02:12:27.136Z,1029.83
2018-12-29T02:12:52.709Z,1029.79
2018-12-29T02:13:18.285Z,1029.81
2018-12-29T02:13:43.860Z,1029.77
2018-12-29T02:14:09.445Z,1029.8
2018-12-29T02:14:35.020Z,1029.82
2018-12-29T02:15:00.589Z,1029.77
2018-12-29T02:15:26.182Z,1029.78
2018-12-29T02:15:51.756Z,1029.78
2018-12-29T02:16:17.327Z,1029.81
2018-12-29T02:16:42.912Z,1029.78
2018-12-29T02:17:08.494Z,1029.79
2018-12-29T02:17:34.069Z,1029.79
2018-12-29T02:17:59.639Z,1029.8
2018-12-29T02:18:25.228Z,1029.79
2018-12-29T02:18:50.868Z,1029.75
2018-12-29T02:19:16.439Z,1029.77
2018-12-29T02:19:42.025Z,1029.75
2018-12-29T02:20:07.596Z,1029.76
2018-12-29T02:20:33.171Z,1029.74
2018-12-29T02:20:58.726Z,1029.75
2018-12-29T02:21:24.307Z,1029.78
2018-12-29T02:21:49.871Z,1029.73
2018-12-29T02:22:15.423Z,1029.77
2018-12-29T02:22:41.011Z,1029.77
2018-12-29T02:23:06.627Z,1029.76
2018-12-29T02:23:32.209Z,1029.72
2018-12-29T02:23:57.787Z,1029.76
2018-12-29T02:24:23.357Z,1029.75
2018-12-29T02:24:48.939Z,1029.73
2018-12-29T02:25:14.519Z,1029.74
2018-12-29T02:25:40.093Z,1029.75
2018-12-29T02:26:05.673Z,1029.78
2018-12-29T02:26:31.253Z,1029.76
2018-12-29T02:26:56.839Z,1029.78
2018-12-29T02:27:22.415Z,1029.71
2018-12-29T02:27:47.999Z,1029.73
2018-12-29T02:28:13.577Z,1029.7
2018-12-29T02:28:39.145Z,1029.75
2018-12-29T02:29:04.717Z,1029.7
2018-12-29T02:29:30.297Z,1029.71
2018-12-29T02:29:55.871Z,1029.7
2018-12-29T02:30:21.438Z,1029.69
2018-12-29T02:30:47.005Z,1029.76
2018-12-29T02:31:12.583Z,1029.73
2018-12-29T02:31:38.165Z,1029.72
2018-12-29T02:32:03.733Z,1029.74
2018-12-29T02:32:29.309Z,1029.72
2018-12-29T02:32:54.893Z,1029.71
2018-12-29T02:33:20.463Z,1029.73
2018-12-29T02:33:46.039Z,1029.69
2018-12-29T02:34:11.621Z,1029.72
2018-12-29T02:34:37.195Z,1029.69
2018-12-29T02:35:02.760Z,1029.7
2018-12-29T02:35:28.351Z,1029.65
2018-12-29T02:35:53.908Z,1029.69
2018-12-29T02:36:19.485Z,1029.65
2018-12-29T02:36:45.052Z,1029.72
2018-12-29T02:37:10.621Z,1029.69
2018-12-29T02:37:36.192Z,1029.72
2018-12-29T02:38:01.749Z,1029.71
2018-12-29T02:38:27.318Z,1029.73
2018-12-29T02:38:52.895Z,1029.71
2018-12-29T02:39:18.481Z,1029.72
2018-12-29T02:39:44.046Z,1029.71
2018-12-29T02:40:09.615Z,1029.72
2018-12-29T02:40:35.193Z,1029.73
2018-12-29T02:41:00.785Z,1029.74
2018-12-29T02:41:26.349Z,1029.7
2018-12-29T02:41:51.916Z,1029.67
2018-12-29T02:42:17.496Z,1029.68
2018-12-29T02:42:43.082Z,1029.69
2018-12-29T02:43:08.671Z,1029.72
2018-12-29T02:43:34.247Z,1029.67
2018-12-29T02:43:59.824Z,1029.69
2018-12-29T02:44:25.441Z,1029.68
2018-12-29T02:44:51.004Z,1029.69
2018-12-29T02:45:16.605Z,1029.67
2018-12-29T02:45:42.173Z,1029.66
2018-12-29T02:46:07.759Z,1029.7
2018-12-29T02:46:33.339Z,1029.69
2018-12-29T02:46:58.927Z,1029.66
2018-12-29T02:47:24.505Z,1029.69
2018-12-29T02:47:50.069Z,1029.66
2018-12-29T02:48:15.653Z,1029.64
2018-12-29T02:48:41.230Z,1029.7
2018-12-29T02:49:06.791Z,1029.69
2018-12-29T02:49:32.353Z,1029.63
2018-12-29T02:49:57.937Z,1029.63
2018-12-29T02:50:23.522Z,1029.61
2018-12-29T02:50:49.110Z,1029.63
2018-12-29T02:51:14.690Z,1029.63
2018-12-29T02:51:40.271Z,1029.6
2018-12-29T02:52:05.861Z,1029.6
2018-12-29T02:52:31.429Z,1029.6
2018-12-29T02:52:56.997Z,1029.58
2018-12-29T02:53:22.570Z,1029.57
2018-12-29T02:53:48.132Z,1029.59
2018-12-29T02:54:13.704Z,1029.6
2018-12-29T02:54:39.277Z,1029.6
2018-12-29T02:55:04.860Z,1029.62
2018-12-29T02:55:30.431Z,1029.64
2018-12-29T02:55:55.998Z,1029.64
2018-12-29T02:56:21.572Z,1029.64
2018-12-29T02:56:47.154Z,1029.61
2018-12-29T02:57:12.716Z,1029.61
2018-12-29T02:57:38.295Z,1029.6
2018-12-29T02:58:03.878Z,1029.56
2018-12-29T02:58:29.462Z,1029.57
2018-12-29T02:58:55.058Z,1029.57
2018-12-29T02:59:20.652Z,1029.53
2018-12-29T02:59:46.231Z,1029.54
2018-12-29T03:00:11.799Z,1029.53
2018-12-29T03:00:37.384Z,1029.54
2018-12-29T03:01:02.969Z,1029.48
2018-12-29T03:01:28.545Z,1029.51
2018-12-29T03:01:54.112Z,1029.49
2018-12-29T03:02:19.690Z,1029.54
2018-12-29T03:02:45.266Z,1029.5
2018-12-29T03:03:10.832Z,1029.5
2018-12-29T03:03:36.404Z,1029.49
2018-12-29T03:04:01.988Z,1029.54
2018-12-29T03:04:27.556Z,1029.51
2018-12-29T03:04:53.139Z,1029.48
2018-12-29T03:05:18.706Z,1029.47
2018-12-29T03:05:44.290Z,1029.48
2018-12-29T03:06:09.902Z,1029.49
2018-12-29T03:06:35.484Z,1029.48
2018-12-29T03:07:01.078Z,1029.48
2018-12-29T03:07:26.665Z,1029.5
2018-12-29T03:07:52.242Z,1029.5
2018-12-29T03:08:17.810Z,1029.47
2018-12-29T03:08:43.399Z,1029.44
2018-12-29T03:09:08.986Z,1029.44
2018-12-29T03:09:34.574Z,1029.44
2018-12-29T03:10:00.456Z,1029.42
2018-12-29T03:10:25.713Z,1029.43
2018-12-29T03:10:51.279Z,1029.45
2018-12-29T03:11:16.880Z,1029.42
2018-12-29T03:11:42.454Z,1029.41
2018-12-29T03:12:08.037Z,1029.39
2018-12-29T03:12:33.599Z,1029.35
2018-12-29T03:12:59.187Z,1029.4
2018-12-29T03:13:24.808Z,1029.44
2018-12-29T03:13:50.389Z,1029.39
2018-12-29T03:14:15.953Z,1029.35
2018-12-29T03:14:41.531Z,1029.37
2018-12-29T03:15:07.111Z,1029.37
2018-12-29T03:15:32.682Z,1029.37
2018-12-29T03:15:58.258Z,1029.41
2018-12-29T03:16:23.826Z,1029.38
2018-12-29T03:16:49.408Z,1029.37
2018-12-29T03:17:14.996Z,1029.38
2018-12-29T03:17:40.561Z,1029.43
2018-12-29T03:18:06.149Z,1029.42
2018-12-29T03:18:31.737Z,1029.4
2018-12-29T03:18:57.310Z,1029.38
2018-12-29T03:19:22.888Z,1029.41
2018-12-29T03:19:48.447Z,1029.41
2018-12-29T03:20:14.018Z,1029.39
2018-12-29T03:20:39.649Z,1029.45
2018-12-29T03:21:05.253Z,1029.48
2018-12-29T03:21:30.819Z,1029.45
2018-12-29T03:21:56.401Z,1029.38
2018-12-29T03:22:21.997Z,1029.42
2018-12-29T03:22:47.570Z,1029.46
2018-12-29T03:23:13.137Z,1029.42
2018-12-29T03:23:38.706Z,1029.44
2018-12-29T03:24:04.293Z,1029.45
2018-12-29T03:24:29.887Z,1029.43
2018-12-29T03:24:55.460Z,1029.46
2018-12-29T03:25:21.068Z,1029.4
2018-12-29T03:25:46.666Z,1029.41
2018-12-29T03:26:12.249Z,1029.38
2018-12-29T03:26:37.815Z,1029.42
2018-12-29T03:27:03.389Z,1029.37
2018-12-29T03:27:28.967Z,1029.35
2018-12-29T03:27:54.576Z,1029.37
2018-12-29T03:28:20.146Z,1029.35
2018-12-29T03:28:45.732Z,1029.32
2018-12-29T03:29:11.306Z,1029.36
2018-12-29T03:29:36.873Z,1029.33
2018-12-29T03:30:02.427Z,1029.36
2018-12-29T03:30:28.018Z,1029.32
2018-12-29T03:30:53.591Z,1029.3
2018-12-29T03:31:19.165Z,1029.31
2018-12-29T03:31:44.740Z,1029.31
2018-12-29T03:32:10.317Z,1029.36
2018-12-29T03:32:35.891Z,1029.32
2018-12-29T03:33:01.455Z,1029.31
2018-12-29T03:33:27.041Z,1029.3
2018-12-29T03:33:52.619Z,1029.34
2018-12-29T03:34:18.211Z,1029.31
2018-12-29T03:34:43.780Z,1029.32
2018-12-29T03:35:09.368Z,1029.36
2018-12-29T03:35:34.921Z,1029.3
2018-12-29T03:36:00.491Z,1029.35
2018-12-29T03:36:26.062Z,1029.33
2018-12-29T03:36:51.629Z,1029.31
2018-12-29T03:37:17.193Z,1029.37
2018-12-29T03:37:42.746Z,1029.35
2018-12-29T03:38:08.323Z,1029.37
2018-12-29T03:38:33.911Z,1029.39
2018-12-29T03:38:59.497Z,1029.41
2018-12-29T03:39:25.080Z,1029.36
2018-12-29T03:39:50.644Z,1029.38
2018-12-29T03:40:16.229Z,1029.36
2018-12-29T03:40:41.791Z,1029.41
2018-12-29T03:41:07.379Z,1029.36
2018-12-29T03:41:32.947Z,1029.4
2018-12-29T03:41:58.540Z,1029.36
2018-12-29T03:42:24.100Z,1029.35
2018-12-29T03:42:49.668Z,1029.37
2018-12-29T03:43:15.220Z,1029.3
2018-12-29T03:43:40.812Z,1029.34
2018-12-29T03:44:06.392Z,1029.32
2018-12-29T03:44:31.981Z,1029.31
2018-12-29T03:44:57.545Z,1029.38
2018-12-29T03:45:23.127Z,1029.33
2018-12-29T03:45:49.185Z,1029.32
2018-12-29T03:46:14.279Z,1029.32
2018-12-29T03:46:39.864Z,1029.31
2018-12-29T03:47:05.442Z,1029.3
2018-12-29T03:47:31.031Z,1029.34
2018-12-29T03:47:56.584Z,1029.27
2018-12-29T03:48:22.172Z,1029.29
2018-12-29T03:48:47.728Z,1029.26
2018-12-29T03:49:13.308Z,1029.28
2018-12-29T03:49:38.892Z,1029.28
2018-12-29T03:50:04.474Z,1029.3
2018-12-29T03:50:30.036Z,1029.31
2018-12-29T03:50:55.614Z,1029.3
2018-12-29T03:51:21.187Z,1029.31
2018-12-29T03:51:46.750Z,1029.29
2018-12-29T03:52:12.329Z,1029.32
2018-12-29T03:52:37.910Z,1029.27
2018-12-29T03:53:03.482Z,1029.26
2018-12-29T03:53:29.056Z,1029.26
2018-12-29T03:53:54.640Z,1029.27
2018-12-29T03:54:20.210Z,1029.27
2018-12-29T03:54:45.790Z,1029.27
2018-12-29T03:55:11.362Z,1029.25
2018-12-29T03:55:36.928Z,1029.25
2018-12-29T03:56:02.508Z,1029.28
2018-12-29T03:56:28.089Z,1029.25
2018-12-29T03:56:53.670Z,1029.26
2018-12-29T03:57:19.257Z,1029.31
2018-12-29T03:57:44.825Z,1029.31
2018-12-29T03:58:10.397Z,1029.29
2018-12-29T03:58:35.957Z,1029.3
2018-12-29T03:59:01.539Z,1029.29
2018-12-29T03:59:27.123Z,1029.28
2018-12-29T03:59:52.731Z,1029.28
2018-12-29T04:00:18.290Z,1029.24
2018-12-29T04:00:43.858Z,1029.29
2018-12-29T04:01:09.430Z,1029.22
2018-12-29T04:01:35.008Z,1029.21
2018-12-29T04:02:00.590Z,1029.22
2018-12-29T04:02:26.155Z,1029.23
2018-12-29T04:02:51.718Z,1029.21
2018-12-29T04:03:17.305Z,1029.22
2018-12-29T04:03:42.883Z,1029.24
2018-12-29T04:04:08.462Z,1029.24
2018-12-29T04:04:34.030Z,1029.26
2018-12-29T04:04:59.605Z,1029.23
2018-12-29T04:05:25.174Z,1029.27
2018-12-29T04:05:50.750Z,1029.26
2018-12-29T04:06:16.327Z,1029.24
2018-12-29T04:06:41.904Z,1029.24
2018-12-29T04:07:07.474Z,1029.23
2018-12-29T04:07:33.044Z,1029.28
2018-12-29T04:07:58.626Z,1029.29
2018-12-29T04:08:24.229Z,1029.21
2018-12-29T04:08:49.827Z,1029.25
2018-12-29T04:09:15.410Z,1029.25
2018-12-29T04:09:40.981Z,1029.28
2018-12-29T04:10:06.548Z,1029.25
2018-12-29T04:10:32.121Z,1029.24
2018-12-29T04:10:57.705Z,1029.26
2018-12-29T04:11:23.268Z,1029.24
2018-12-29T04:11:48.846Z,1029.21
2018-12-29T04:12:14.422Z,1029.24
2018-12-29T04:12:40.005Z,1029.26
2018-12-29T04:13:05.586Z,1029.29
2018-12-29T04:13:31.170Z,1029.25
2018-12-29T04:13:56.738Z,1029.29
2018-12-29T04:14:22.318Z,1029.23
2018-12-29T04:14:47.885Z,1029.26
2018-12-29T04:15:13.464Z,1029.24
2018-12-29T04:15:39.022Z,1029.24
2018-12-29T04:16:04.611Z,1029.25
2018-12-29T04:16:30.183Z,1029.24
2018-12-29T04:16:55.760Z,1029.28
2018-12-29T04:17:21.325Z,1029.25
2018-12-29T04:17:46.906Z,1029.25
2018-12-29T04:18:12.486Z,1029.26
2018-12-29T04:18:38.065Z,1029.24
2018-12-29T04:19:03.652Z,1029.26
2018-12-29T04:19:29.228Z,1029.24
2018-12-29T04:19:54.797Z,1029.22
2018-12-29T04:20:20.367Z,1029.22
2018-12-29T04:20:45.937Z,1029.25
2018-12-29T04:21:11.521Z,1029.24
2018-12-29T04:21:37.120Z,1029.19
2018-12-29T04:22:02.696Z,1029.18
2018-12-29T04:22:28.300Z,1029.2
2018-12-29T04:22:53.877Z,1029.2
2018-12-29T04:23:19.460Z,1029.28
2018-12-29T04:23:45.036Z,1029.21
2018-12-29T04:24:10.608Z,1029.23
2018-12-29T04:24:36.188Z,1029.24
2018-12-29T04:25:01.766Z,1029.24
2018-12-29T04:25:27.344Z,1029.23
2018-12-29T04:25:52.929Z,1029.23
2018-12-29T04:26:18.502Z,1029.2
2018-12-29T04:26:44.070Z,1029.17
2018-12-29T04:27:09.642Z,1029.23
2018-12-29T04:27:35.236Z,1029.22
2018-12-29T04:28:00.812Z,1029.21
2018-12-29T04:28:26.386Z,1029.18
2018-12-29T04:28:51.960Z,1029.22
2018-12-29T04:29:17.542Z,1029.2
2018-12-29T04:29:43.124Z,1029.22
2018-12-29T04:30:08.703Z,1029.23
2018-12-29T04:30:34.282Z,1029.27
2018-12-29T04:30:59.852Z,1029.23
2018-12-29T04:31:25.424Z,1029.21
2018-12-29T04:31:50.994Z,1029.22
2018-12-29T04:32:16.596Z,1029.21
2018-12-29T04:32:42.174Z,1029.17
2018-12-29T04:33:07.747Z,1029.17
2018-12-29T04:33:33.308Z,1029.2
2018-12-29T04:33:58.868Z,1029.22
2018-12-29T04:34:24.444Z,1029.22
2018-12-29T04:34:50.016Z,1029.14
2018-12-29T04:35:15.609Z,1029.18
2018-12-29T04:35:41.166Z,1029.2
2018-12-29T04:36:06.744Z,1029.18
2018-12-29T04:36:32.323Z,1029.14
2018-12-29T04:36:57.914Z,1029.13
2018-12-29T04:37:23.488Z,1029.14
2018-12-29T04:37:49.058Z,1029.2
2018-12-29T04:38:14.626Z,1029.16
2018-12-29T04:38:40.202Z,1029.13
2018-12-29T04:39:05.794Z,1029.17
2018-12-29T04:39:31.366Z,1029.13
2018-12-29T04:39:56.940Z,1029.12
2018-12-29T04:40:22.510Z,1029.13
2018-12-29T04:40:48.080Z,1029.08
2018-12-29T04:41:13.665Z,1029.08
2018-12-29T04:41:39.240Z,1029.13
2018-12-29T04:42:04.838Z,1029.13
2018-12-29T04:42:30.404Z,1029.06
2018-12-29T04:42:55.982Z,1029.11
2018-12-29T04:43:21.556Z,1029.11
2018-12-29T04:43:47.117Z,1029.06
2018-12-29T04:44:12.690Z,1029.07
2018-12-29T04:44:38.263Z,1029.03
2018-12-29T04:45:03.828Z,1029.08
2018-12-29T04:45:29.426Z,1029.05
2018-12-29T04:45:54.994Z,1029.03
2018-12-29T04:46:20.576Z,1029.06
2018-12-29T04:46:46.146Z,1029.06
2018-12-29T04:47:11.735Z,1029.07
2018-12-29T04:47:37.336Z,1029.06
2018-12-29T04:48:02.883Z,1029.07
2018-12-29T04:48:28.483Z,1029.09
2018-12-29T04:48:54.033Z,1029.14
2018-12-29T04:49:19.636Z,1029.12
2018-12-29T04:49:45.198Z,1029.07
2018-12-29T04:50:10.776Z,1029.07
2018-12-29T04:50:36.358Z,1029.09
2018-12-29T04:51:01.927Z,1029.08
2018-12-29T04:51:27.498Z,1029.06
2018-12-29T04:51:53.077Z,1029.09
2018-12-29T04:52:18.661Z,1029.08
2018-12-29T04:52:44.244Z,1029.09
2018-12-29T04:53:09.802Z,1029.11
2018-12-29T04:53:35.382Z,1029.12
2018-12-29T04:54:00.948Z,1029.13
2018-12-29T04:54:26.533Z,1029.14
2018-12-29T04:54:52.104Z,1029.14
2018-12-29T04:55:17.676Z,1029.17
2018-12-29T04:55:43.261Z,1029.14
2018-12-29T04:56:08.830Z,1029.16
2018-12-29T04:56:34.401Z,1029.14
2018-12-29T04:56:59.975Z,1029.17
2018-12-29T04:57:25.568Z,1029.17
2018-12-29T04:57:51.124Z,1029.13
2018-12-29T04:58:16.701Z,1029.19
2018-12-29T04:58:42.285Z,1029.16
2018-12-29T04:59:07.852Z,1029.12
2018-12-29T04:59:33.432Z,1029.18
2018-12-29T04:59:59.003Z,1029.18
2018-12-29T05:00:24.574Z,1029.12
2018-12-29T05:00:50.171Z,1029.17
2018-12-29T05:01:15.752Z,1029.16
2018-12-29T05:01:41.328Z,1029.18
2018-12-29T05:02:06.898Z,1029.14
2018-12-29T05:02:32.463Z,1029.14
2018-12-29T05:02:58.046Z,1029.16
2018-12-29T05:03:23.616Z,1029.13
2018-12-29T05:03:49.181Z,1029.12
2018-12-29T05:04:14.748Z,1029.09
2018-12-29T05:04:40.312Z,1029.12
2018-12-29T05:05:05.888Z,1029.11
2018-12-29T05:05:31.460Z,1029.12
2018-12-29T05:05:57.032Z,1029.14
2018-12-29T05:06:22.618Z,1029.12
2018-12-29T05:06:48.196Z,1029.1
2018-12-29T05:07:13.770Z,1029.11
2018-12-29T05:07:39.342Z,1029.12
2018-12-29T05:08:04.928Z,1029.05
2018-12-29T05:08:30.494Z,1029.1
2018-12-29T05:08:56.074Z,1029.09
2018-12-29T05:09:21.655Z,1029.09
2018-12-29T05:09:47.215Z,1029.11
2018-12-29T05:10:12.810Z,1029.13
2018-12-29T05:10:38.373Z,1029.12